sensor_id;sensor_type;location;lat;lon;timestamp;P1;durP1;ratioP1;P2;durP2;ratioP2
47429;SDS011;33181;49.246;7.372;2023-03-01T00:01:47;23.17;;;12.80;;
47429;SDS011;33181;49.246;7.372;2023-03-01T00:04:13;18.80;;;11.20;;
47429;SDS011;33181;49.246;7.372;2023-03-01T00:06:39;21.23;;;12.87;;
47429;SDS011;33181;49.246;7.372;2023-03-01T00:09:04;20.10;;;12.73;;
47429;SDS011;33181;49.246;7.372;2023-03-01T00:11:32;21.43;;;12.70;;
47429;SDS011;33181;49.246;7.372;2023-03-01T00:13:59;21.27;;;12.10;;
47429;SDS011;33181;49.246;7.372;2023-03-01T00:16:27;19.53;;;11.63;;
47429;SDS011;33181;49.246;7.372;2023-03-01T00:18:58;21.47;;;12.83;;
47429;SDS011;33181;49.246;7.372;2023-03-01T00:21:25;19.10;;;12.00;;
47429;SDS011;33181;49.246;7.372;2023-03-01T00:23:52;19.83;;;11.97;;
47429;SDS011;33181;49.246;7.372;2023-03-01T00:26:21;20.47;;;12.10;;
47429;SDS011;33181;49.246;7.372;2023-03-01T00:28:49;18.77;;;11.57;;
47429;SDS011;33181;49.246;7.372;2023-03-01T00:31:18;19.07;;;11.07;;
47429;SDS011;33181;49.246;7.372;2023-03-01T00:33:48;20.03;;;11.70;;
47429;SDS011;33181;49.246;7.372;2023-03-01T00:36:18;22.77;;;12.50;;
47429;SDS011;33181;49.246;7.372;2023-03-01T00:38:45;18.13;;;11.60;;
47429;SDS011;33181;49.246;7.372;2023-03-01T00:41:12;17.63;;;10.93;;
47429;SDS011;33181;49.246;7.372;2023-03-01T00:43:40;18.77;;;11.60;;
47429;SDS011;33181;49.246;7.372;2023-03-01T00:46:07;19.80;;;11.90;;
47429;SDS011;33181;49.246;7.372;2023-03-01T00:48:36;17.03;;;10.53;;
47429;SDS011;33181;49.246;7.372;2023-03-01T00:53:46;17.20;;;11.10;;
47429;SDS011;33181;49.246;7.372;2023-03-01T00:56:18;19.10;;;11.33;;
47429;SDS011;33181;49.246;7.372;2023-03-01T00:58:44;22.50;;;13.07;;
47429;SDS011;33181;49.246;7.372;2023-03-01T01:01:11;20.17;;;12.77;;
47429;SDS011;33181;49.246;7.372;2023-03-01T01:03:50;21.57;;;11.50;;
47429;SDS011;33181;49.246;7.372;2023-03-01T01:06:41;20.00;;;12.23;;
47429;SDS011;33181;49.246;7.372;2023-03-01T01:09:11;21.00;;;12.40;;
47429;SDS011;33181;49.246;7.372;2023-03-01T01:11:46;17.27;;;11.67;;
47429;SDS011;33181;49.246;7.372;2023-03-01T01:14:14;20.00;;;12.33;;
47429;SDS011;33181;49.246;7.372;2023-03-01T01:16:40;20.00;;;11.90;;
47429;SDS011;33181;49.246;7.372;2023-03-01T01:19:06;16.80;;;11.70;;
47429;SDS011;33181;49.246;7.372;2023-03-01T01:21:32;16.80;;;10.70;;
47429;SDS011;33181;49.246;7.372;2023-03-01T01:23:58;21.67;;;12.20;;
47429;SDS011;33181;49.246;7.372;2023-03-01T01:26:26;18.07;;;11.60;;
47429;SDS011;33181;49.246;7.372;2023-03-01T01:28:57;19.70;;;11.77;;
47429;SDS011;33181;49.246;7.372;2023-03-01T01:31:25;20.60;;;11.90;;
47429;SDS011;33181;49.246;7.372;2023-03-01T01:33:52;19.10;;;11.33;;
47429;SDS011;33181;49.246;7.372;2023-03-01T01:36:19;20.00;;;11.83;;
47429;SDS011;33181;49.246;7.372;2023-03-01T01:38:45;20.20;;;11.93;;
47429;SDS011;33181;49.246;7.372;2023-03-01T01:41:12;19.67;;;10.50;;
47429;SDS011;33181;49.246;7.372;2023-03-01T01:43:43;18.40;;;12.33;;
47429;SDS011;33181;49.246;7.372;2023-03-01T01:46:31;20.40;;;12.10;;
47429;SDS011;33181;49.246;7.372;2023-03-01T01:49:00;19.73;;;12.00;;
47429;SDS011;33181;49.246;7.372;2023-03-01T01:51:36;22.90;;;11.90;;
47429;SDS011;33181;49.246;7.372;2023-03-01T01:54:24;17.90;;;10.77;;
47429;SDS011;33181;49.246;7.372;2023-03-01T01:57:03;21.33;;;12.37;;
47429;SDS011;33181;49.246;7.372;2023-03-01T01:59:36;20.67;;;12.50;;
47429;SDS011;33181;49.246;7.372;2023-03-01T02:02:03;23.07;;;12.93;;
47429;SDS011;33181;49.246;7.372;2023-03-01T02:04:30;20.00;;;12.30;;
47429;SDS011;33181;49.246;7.372;2023-03-01T02:06:58;22.53;;;12.97;;
47429;SDS011;33181;49.246;7.372;2023-03-01T02:09:42;20.20;;;11.20;;
47429;SDS011;33181;49.246;7.372;2023-03-01T02:12:12;22.17;;;12.37;;
47429;SDS011;33181;49.246;7.372;2023-03-01T02:14:44;21.13;;;11.83;;
47429;SDS011;33181;49.246;7.372;2023-03-01T02:17:11;20.10;;;12.13;;
47429;SDS011;33181;49.246;7.372;2023-03-01T02:22:30;21.30;;;12.13;;
47429;SDS011;33181;49.246;7.372;2023-03-01T02:30:47;24.87;;;11.90;;
47429;SDS011;33181;49.246;7.372;2023-03-01T02:33:53;23.50;;;13.10;;
47429;SDS011;33181;49.246;7.372;2023-03-01T02:36:29;21.30;;;12.67;;
47429;SDS011;33181;49.246;7.372;2023-03-01T02:39:02;20.40;;;12.20;;
47429;SDS011;33181;49.246;7.372;2023-03-01T02:41:32;20.30;;;12.13;;
47429;SDS011;33181;49.246;7.372;2023-03-01T02:44:03;20.30;;;12.70;;
47429;SDS011;33181;49.246;7.372;2023-03-01T02:46:30;20.87;;;12.93;;
47429;SDS011;33181;49.246;7.372;2023-03-01T02:48:57;23.77;;;13.20;;
47429;SDS011;33181;49.246;7.372;2023-03-01T02:57:08;23.33;;;12.63;;
47429;SDS011;33181;49.246;7.372;2023-03-01T02:59:35;19.60;;;12.20;;
47429;SDS011;33181;49.246;7.372;2023-03-01T03:02:18;19.63;;;12.30;;
47429;SDS011;33181;49.246;7.372;2023-03-01T03:05:09;22.70;;;13.50;;
47429;SDS011;33181;49.246;7.372;2023-03-01T03:07:42;22.60;;;12.70;;
47429;SDS011;33181;49.246;7.372;2023-03-01T03:10:11;24.67;;;12.83;;
47429;SDS011;33181;49.246;7.372;2023-03-01T03:12:44;23.00;;;12.23;;
47429;SDS011;33181;49.246;7.372;2023-03-01T03:15:19;20.60;;;12.30;;
47429;SDS011;33181;49.246;7.372;2023-03-01T03:17:46;23.30;;;12.60;;
47429;SDS011;33181;49.246;7.372;2023-03-01T03:20:13;23.37;;;12.50;;
47429;SDS011;33181;49.246;7.372;2023-03-01T03:22:44;21.50;;;13.60;;
47429;SDS011;33181;49.246;7.372;2023-03-01T03:25:12;22.00;;;13.67;;
47429;SDS011;33181;49.246;7.372;2023-03-01T03:27:38;23.17;;;13.30;;
47429;SDS011;33181;49.246;7.372;2023-03-01T03:30:09;22.83;;;13.30;;
47429;SDS011;33181;49.246;7.372;2023-03-01T03:32:39;22.63;;;13.30;;
47429;SDS011;33181;49.246;7.372;2023-03-01T03:35:06;24.40;;;13.37;;
47429;SDS011;33181;49.246;7.372;2023-03-01T03:37:37;20.23;;;13.00;;
47429;SDS011;33181;49.246;7.372;2023-03-01T03:40:22;21.87;;;13.00;;
47429;SDS011;33181;49.246;7.372;2023-03-01T03:42:49;21.00;;;13.00;;
47429;SDS011;33181;49.246;7.372;2023-03-01T03:45:15;25.30;;;13.27;;
47429;SDS011;33181;49.246;7.372;2023-03-01T03:47:42;21.80;;;13.80;;
47429;SDS011;33181;49.246;7.372;2023-03-01T03:50:09;21.40;;;12.53;;
47429;SDS011;33181;49.246;7.372;2023-03-01T03:52:40;21.83;;;11.73;;
47429;SDS011;33181;49.246;7.372;2023-03-01T03:55:06;22.87;;;13.07;;
47429;SDS011;33181;49.246;7.372;2023-03-01T03:57:37;23.17;;;12.90;;
47429;SDS011;33181;49.246;7.372;2023-03-01T04:00:07;20.13;;;12.23;;
47429;SDS011;33181;49.246;7.372;2023-03-01T04:02:44;20.57;;;12.90;;
47429;SDS011;33181;49.246;7.372;2023-03-01T04:05:12;24.23;;;13.30;;
47429;SDS011;33181;49.246;7.372;2023-03-01T04:07:40;23.23;;;13.03;;
47429;SDS011;33181;49.246;7.372;2023-03-01T04:10:08;22.63;;;13.20;;
47429;SDS011;33181;49.246;7.372;2023-03-01T04:12:40;26.10;;;14.20;;
47429;SDS011;33181;49.246;7.372;2023-03-01T04:15:08;24.90;;;14.03;;
47429;SDS011;33181;49.246;7.372;2023-03-01T04:17:45;26.90;;;14.53;;
47429;SDS011;33181;49.246;7.372;2023-03-01T04:20:15;27.40;;;14.70;;
47429;SDS011;33181;49.246;7.372;2023-03-01T04:22:50;26.37;;;15.40;;
47429;SDS011;33181;49.246;7.372;2023-03-01T04:25:53;32.83;;;15.03;;
47429;SDS011;33181;49.246;7.372;2023-03-01T04:28:26;24.80;;;14.33;;
47429;SDS011;33181;49.246;7.372;2023-03-01T04:30:54;28.07;;;14.77;;
47429;SDS011;33181;49.246;7.372;2023-03-01T04:33:22;29.10;;;15.20;;
47429;SDS011;33181;49.246;7.372;2023-03-01T04:35:50;24.10;;;14.50;;
47429;SDS011;33181;49.246;7.372;2023-03-01T04:38:17;27.43;;;15.33;;
47429;SDS011;33181;49.246;7.372;2023-03-01T04:40:44;28.00;;;15.00;;
47429;SDS011;33181;49.246;7.372;2023-03-01T04:43:10;28.20;;;15.00;;
47429;SDS011;33181;49.246;7.372;2023-03-01T04:45:40;25.57;;;15.00;;
47429;SDS011;33181;49.246;7.372;2023-03-01T04:48:06;24.80;;;13.80;;
47429;SDS011;33181;49.246;7.372;2023-03-01T04:50:32;26.67;;;14.10;;
47429;SDS011;33181;49.246;7.372;2023-03-01T04:52:59;28.00;;;15.60;;
47429;SDS011;33181;49.246;7.372;2023-03-01T04:55:26;27.33;;;14.90;;
47429;SDS011;33181;49.246;7.372;2023-03-01T04:57:53;28.20;;;15.00;;
47429;SDS011;33181;49.246;7.372;2023-03-01T05:00:19;33.50;;;16.40;;
47429;SDS011;33181;49.246;7.372;2023-03-01T05:05:22;30.50;;;15.87;;
47429;SDS011;33181;49.246;7.372;2023-03-01T05:07:55;31.40;;;15.90;;
47429;SDS011;33181;49.246;7.372;2023-03-01T05:10:25;29.20;;;15.80;;
47429;SDS011;33181;49.246;7.372;2023-03-01T05:12:57;29.33;;;15.13;;
47429;SDS011;33181;49.246;7.372;2023-03-01T05:15:26;32.20;;;15.30;;
47429;SDS011;33181;49.246;7.372;2023-03-01T05:17:56;29.87;;;15.77;;
47429;SDS011;33181;49.246;7.372;2023-03-01T05:20:24;31.73;;;16.17;;
47429;SDS011;33181;49.246;7.372;2023-03-01T05:22:56;30.03;;;15.10;;
47429;SDS011;33181;49.246;7.372;2023-03-01T05:25:24;31.03;;;14.67;;
47429;SDS011;33181;49.246;7.372;2023-03-01T05:27:50;32.37;;;16.57;;
47429;SDS011;33181;49.246;7.372;2023-03-01T05:30:16;28.93;;;15.80;;
47429;SDS011;33181;49.246;7.372;2023-03-01T05:32:44;28.37;;;15.27;;
47429;SDS011;33181;49.246;7.372;2023-03-01T05:35:20;30.40;;;16.13;;
47429;SDS011;33181;49.246;7.372;2023-03-01T05:37:46;29.13;;;16.53;;
47429;SDS011;33181;49.246;7.372;2023-03-01T05:40:16;30.63;;;16.63;;
47429;SDS011;33181;49.246;7.372;2023-03-01T05:42:45;31.13;;;15.87;;
47429;SDS011;33181;49.246;7.372;2023-03-01T05:45:17;29.93;;;16.27;;
47429;SDS011;33181;49.246;7.372;2023-03-01T05:47:44;30.60;;;16.47;;
47429;SDS011;33181;49.246;7.372;2023-03-01T05:50:13;31.70;;;16.50;;
47429;SDS011;33181;49.246;7.372;2023-03-01T05:52:44;30.60;;;15.60;;
47429;SDS011;33181;49.246;7.372;2023-03-01T05:55:19;28.20;;;15.20;;
47429;SDS011;33181;49.246;7.372;2023-03-01T05:57:46;30.03;;;16.03;;
47429;SDS011;33181;49.246;7.372;2023-03-01T06:00:13;30.60;;;16.87;;
47429;SDS011;33181;49.246;7.372;2023-03-01T06:02:41;27.73;;;15.70;;
47429;SDS011;33181;49.246;7.372;2023-03-01T06:05:07;30.33;;;16.37;;
47429;SDS011;33181;49.246;7.372;2023-03-01T06:07:35;36.73;;;16.43;;
47429;SDS011;33181;49.246;7.372;2023-03-01T06:10:02;33.90;;;16.70;;
47429;SDS011;33181;49.246;7.372;2023-03-01T06:12:30;29.90;;;16.80;;
47429;SDS011;33181;49.246;7.372;2023-03-01T06:14:58;30.83;;;17.07;;
47429;SDS011;33181;49.246;7.372;2023-03-01T06:17:24;33.47;;;17.30;;
47429;SDS011;33181;49.246;7.372;2023-03-01T06:19:50;34.47;;;16.70;;
47429;SDS011;33181;49.246;7.372;2023-03-01T06:22:15;32.97;;;16.83;;
47429;SDS011;33181;49.246;7.372;2023-03-01T06:24:41;32.83;;;16.70;;
47429;SDS011;33181;49.246;7.372;2023-03-01T06:27:07;32.20;;;16.80;;
47429;SDS011;33181;49.246;7.372;2023-03-01T06:29:33;37.20;;;17.37;;
47429;SDS011;33181;49.246;7.372;2023-03-01T06:31:59;35.57;;;16.90;;
47429;SDS011;33181;49.246;7.372;2023-03-01T06:34:24;32.73;;;16.87;;
47429;SDS011;33181;49.246;7.372;2023-03-01T06:36:50;30.50;;;16.60;;
47429;SDS011;33181;49.246;7.372;2023-03-01T06:39:16;32.03;;;17.27;;
47429;SDS011;33181;49.246;7.372;2023-03-01T06:41:42;34.70;;;17.80;;
47429;SDS011;33181;49.246;7.372;2023-03-01T06:44:09;31.40;;;16.73;;
47429;SDS011;33181;49.246;7.372;2023-03-01T06:46:35;41.30;;;17.23;;
47429;SDS011;33181;49.246;7.372;2023-03-01T06:49:01;37.47;;;19.00;;
47429;SDS011;33181;49.246;7.372;2023-03-01T06:51:29;42.07;;;19.13;;
47429;SDS011;33181;49.246;7.372;2023-03-01T06:53:55;39.23;;;17.43;;
47429;SDS011;33181;49.246;7.372;2023-03-01T06:56:21;36.93;;;16.30;;
47429;SDS011;33181;49.246;7.372;2023-03-01T06:58:46;31.37;;;16.30;;
47429;SDS011;33181;49.246;7.372;2023-03-01T07:01:12;31.13;;;17.13;;
47429;SDS011;33181;49.246;7.372;2023-03-01T07:03:38;31.97;;;16.07;;
47429;SDS011;33181;49.246;7.372;2023-03-01T07:06:03;33.97;;;16.93;;
47429;SDS011;33181;49.246;7.372;2023-03-01T07:08:29;32.40;;;16.37;;
47429;SDS011;33181;49.246;7.372;2023-03-01T07:10:56;31.90;;;17.57;;
47429;SDS011;33181;49.246;7.372;2023-03-01T07:13:23;28.70;;;15.83;;
47429;SDS011;33181;49.246;7.372;2023-03-01T07:15:50;30.90;;;16.87;;
47429;SDS011;33181;49.246;7.372;2023-03-01T07:18:16;31.77;;;16.57;;
47429;SDS011;33181;49.246;7.372;2023-03-01T07:20:41;33.03;;;17.70;;
47429;SDS011;33181;49.246;7.372;2023-03-01T07:23:07;29.27;;;15.93;;
47429;SDS011;33181;49.246;7.372;2023-03-01T07:25:33;32.23;;;17.20;;
47429;SDS011;33181;49.246;7.372;2023-03-01T07:27:59;31.00;;;17.30;;
47429;SDS011;33181;49.246;7.372;2023-03-01T07:30:25;35.03;;;17.13;;
47429;SDS011;33181;49.246;7.372;2023-03-01T07:32:53;32.20;;;16.67;;
47429;SDS011;33181;49.246;7.372;2023-03-01T07:35:22;30.23;;;16.17;;
47429;SDS011;33181;49.246;7.372;2023-03-01T07:37:50;30.90;;;16.50;;
47429;SDS011;33181;49.246;7.372;2023-03-01T07:40:16;34.33;;;17.83;;
47429;SDS011;33181;49.246;7.372;2023-03-01T07:42:42;31.00;;;16.93;;
47429;SDS011;33181;49.246;7.372;2023-03-01T07:45:08;32.17;;;16.87;;
47429;SDS011;33181;49.246;7.372;2023-03-01T07:47:34;31.03;;;17.00;;
47429;SDS011;33181;49.246;7.372;2023-03-01T07:50:01;32.43;;;16.83;;
47429;SDS011;33181;49.246;7.372;2023-03-01T07:52:28;29.40;;;15.80;;
47429;SDS011;33181;49.246;7.372;2023-03-01T07:54:55;36.50;;;16.97;;
47429;SDS011;33181;49.246;7.372;2023-03-01T07:57:21;32.00;;;16.37;;
47429;SDS011;33181;49.246;7.372;2023-03-01T07:59:47;30.50;;;16.80;;
47429;SDS011;33181;49.246;7.372;2023-03-01T08:02:13;29.73;;;16.83;;
47429;SDS011;33181;49.246;7.372;2023-03-01T08:04:40;30.20;;;16.43;;
47429;SDS011;33181;49.246;7.372;2023-03-01T08:07:07;28.57;;;15.70;;
47429;SDS011;33181;49.246;7.372;2023-03-01T08:09:36;29.80;;;16.70;;
47429;SDS011;33181;49.246;7.372;2023-03-01T08:12:02;28.20;;;16.33;;
47429;SDS011;33181;49.246;7.372;2023-03-01T08:14:30;29.43;;;16.20;;
47429;SDS011;33181;49.246;7.372;2023-03-01T08:16:58;32.53;;;17.83;;
47429;SDS011;33181;49.246;7.372;2023-03-01T08:19:24;34.17;;;17.00;;
47429;SDS011;33181;49.246;7.372;2023-03-01T08:21:50;30.23;;;18.20;;
47429;SDS011;33181;49.246;7.372;2023-03-01T08:24:16;32.73;;;17.00;;
47429;SDS011;33181;49.246;7.372;2023-03-01T08:26:42;33.37;;;17.60;;
47429;SDS011;33181;49.246;7.372;2023-03-01T08:29:07;30.23;;;17.03;;
47429;SDS011;33181;49.246;7.372;2023-03-01T08:31:34;34.30;;;17.50;;
47429;SDS011;33181;49.246;7.372;2023-03-01T08:34:03;31.70;;;16.63;;
47429;SDS011;33181;49.246;7.372;2023-03-01T08:36:34;32.57;;;17.10;;
47429;SDS011;33181;49.246;7.372;2023-03-01T08:39:04;32.83;;;18.07;;
47429;SDS011;33181;49.246;7.372;2023-03-01T08:41:31;33.30;;;17.23;;
47429;SDS011;33181;49.246;7.372;2023-03-01T08:43:57;30.37;;;16.93;;
47429;SDS011;33181;49.246;7.372;2023-03-01T08:46:26;35.13;;;17.27;;
47429;SDS011;33181;49.246;7.372;2023-03-01T08:49:03;32.77;;;16.80;;
47429;SDS011;33181;49.246;7.372;2023-03-01T08:51:35;31.90;;;17.80;;
47429;SDS011;33181;49.246;7.372;2023-03-01T08:54:12;30.80;;;16.90;;
47429;SDS011;33181;49.246;7.372;2023-03-01T08:56:41;31.90;;;17.37;;
47429;SDS011;33181;49.246;7.372;2023-03-01T08:59:07;30.77;;;17.80;;
47429;SDS011;33181;49.246;7.372;2023-03-01T09:01:35;31.33;;;18.23;;
47429;SDS011;33181;49.246;7.372;2023-03-01T09:04:02;32.80;;;17.33;;
47429;SDS011;33181;49.246;7.372;2023-03-01T09:06:32;32.17;;;18.00;;
47429;SDS011;33181;49.246;7.372;2023-03-01T09:08:59;31.67;;;17.97;;
47429;SDS011;33181;49.246;7.372;2023-03-01T09:11:27;31.63;;;17.60;;
47429;SDS011;33181;49.246;7.372;2023-03-01T09:13:53;31.30;;;16.63;;
47429;SDS011;33181;49.246;7.372;2023-03-01T09:16:20;30.97;;;17.30;;
47429;SDS011;33181;49.246;7.372;2023-03-01T09:18:51;32.60;;;17.20;;
47429;SDS011;33181;49.246;7.372;2023-03-01T09:21:18;30.97;;;16.77;;
47429;SDS011;33181;49.246;7.372;2023-03-01T09:23:47;30.47;;;16.83;;
47429;SDS011;33181;49.246;7.372;2023-03-01T09:26:18;31.47;;;17.83;;
47429;SDS011;33181;49.246;7.372;2023-03-01T09:28:47;34.67;;;17.80;;
47429;SDS011;33181;49.246;7.372;2023-03-01T09:31:15;28.97;;;17.07;;
47429;SDS011;33181;49.246;7.372;2023-03-01T09:33:46;31.50;;;17.53;;
47429;SDS011;33181;49.246;7.372;2023-03-01T09:36:18;31.43;;;17.40;;
47429;SDS011;33181;49.246;7.372;2023-03-01T09:38:47;31.30;;;17.90;;
47429;SDS011;33181;49.246;7.372;2023-03-01T09:43:43;30.80;;;16.60;;
47429;SDS011;33181;49.246;7.372;2023-03-01T09:46:19;27.23;;;16.33;;
47429;SDS011;33181;49.246;7.372;2023-03-01T09:48:52;31.60;;;16.80;;
47429;SDS011;33181;49.246;7.372;2023-03-01T09:51:34;30.77;;;16.60;;
47429;SDS011;33181;49.246;7.372;2023-03-01T09:54:01;28.60;;;17.30;;
47429;SDS011;33181;49.246;7.372;2023-03-01T09:56:30;30.23;;;17.40;;
47429;SDS011;33181;49.246;7.372;2023-03-01T10:01:48;29.80;;;17.50;;
47429;SDS011;33181;49.246;7.372;2023-03-01T10:04:47;28.17;;;17.80;;
47429;SDS011;33181;49.246;7.372;2023-03-01T10:07:25;28.43;;;16.93;;
47429;SDS011;33181;49.246;7.372;2023-03-01T10:10:31;30.53;;;17.37;;
47429;SDS011;33181;49.246;7.372;2023-03-01T10:13:19;28.53;;;17.00;;
47429;SDS011;33181;49.246;7.372;2023-03-01T10:16:57;28.00;;;15.90;;
47429;SDS011;33181;49.246;7.372;2023-03-01T10:19:27;32.10;;;17.40;;
47429;SDS011;33181;49.246;7.372;2023-03-01T10:22:42;26.57;;;16.33;;
47429;SDS011;33181;49.246;7.372;2023-03-01T10:24:57;33.83;;;17.30;;
47429;SDS011;33181;49.246;7.372;2023-03-01T10:30:21;32.87;;;17.40;;
47429;SDS011;33181;49.246;7.372;2023-03-01T10:32:52;28.30;;;16.67;;
47429;SDS011;33181;49.246;7.372;2023-03-01T10:35:20;29.93;;;17.67;;
47429;SDS011;33181;49.246;7.372;2023-03-01T10:37:56;28.60;;;16.93;;
47429;SDS011;33181;49.246;7.372;2023-03-01T10:40:33;30.07;;;17.10;;
47429;SDS011;33181;49.246;7.372;2023-03-01T10:43:02;28.37;;;17.43;;
47429;SDS011;33181;49.246;7.372;2023-03-01T10:50:39;27.53;;;16.87;;
47429;SDS011;33181;49.246;7.372;2023-03-01T10:56:04;29.20;;;17.77;;
47429;SDS011;33181;49.246;7.372;2023-03-01T10:58:40;27.47;;;16.60;;
47429;SDS011;33181;49.246;7.372;2023-03-01T11:01:29;30.70;;;17.40;;
47429;SDS011;33181;49.246;7.372;2023-03-01T11:06:30;28.90;;;17.73;;
47429;SDS011;33181;49.246;7.372;2023-03-01T11:08:56;29.60;;;17.27;;
47429;SDS011;33181;49.246;7.372;2023-03-01T11:11:37;30.00;;;18.20;;
47429;SDS011;33181;49.246;7.372;2023-03-01T11:14:21;33.10;;;17.23;;
47429;SDS011;33181;49.246;7.372;2023-03-01T11:16:57;33.43;;;17.87;;
47429;SDS011;33181;49.246;7.372;2023-03-01T11:19:26;27.83;;;17.20;;
47429;SDS011;33181;49.246;7.372;2023-03-01T11:21:57;27.27;;;16.27;;
47429;SDS011;33181;49.246;7.372;2023-03-01T11:24:49;33.53;;;18.00;;
47429;SDS011;33181;49.246;7.372;2023-03-01T11:27:22;32.40;;;18.33;;
47429;SDS011;33181;49.246;7.372;2023-03-01T11:35:32;28.67;;;17.50;;
47429;SDS011;33181;49.246;7.372;2023-03-01T11:38:05;31.83;;;18.10;;
47429;SDS011;33181;49.246;7.372;2023-03-01T11:43:37;29.53;;;17.97;;
47429;SDS011;33181;49.246;7.372;2023-03-01T11:52:05;30.70;;;18.20;;
47429;SDS011;33181;49.246;7.372;2023-03-01T12:01:30;27.43;;;16.23;;
47429;SDS011;33181;49.246;7.372;2023-03-01T12:10:37;31.37;;;17.40;;
47429;SDS011;33181;49.246;7.372;2023-03-01T12:22:27;30.00;;;17.90;;
47429;SDS011;33181;49.246;7.372;2023-03-01T12:31:21;32.00;;;19.17;;
47429;SDS011;33181;49.246;7.372;2023-03-01T12:37:29;29.00;;;17.80;;
47429;SDS011;33181;49.246;7.372;2023-03-01T12:51:58;29.13;;;17.77;;
47429;SDS011;33181;49.246;7.372;2023-03-01T12:55:07;28.67;;;17.27;;
47429;SDS011;33181;49.246;7.372;2023-03-01T12:58:05;31.47;;;17.90;;
47429;SDS011;33181;49.246;7.372;2023-03-01T13:17:53;30.63;;;18.23;;
47429;SDS011;33181;49.246;7.372;2023-03-01T13:20:34;31.20;;;18.40;;
47429;SDS011;33181;49.246;7.372;2023-03-01T13:26:00;27.73;;;17.73;;
47429;SDS011;33181;49.246;7.372;2023-03-01T13:31:00;31.43;;;18.07;;
47429;SDS011;33181;49.246;7.372;2023-03-01T13:35:53;28.97;;;18.53;;
47429;SDS011;33181;49.246;7.372;2023-03-01T13:41:16;29.40;;;16.70;;
47429;SDS011;33181;49.246;7.372;2023-03-01T13:46:51;33.77;;;17.40;;
47429;SDS011;33181;49.246;7.372;2023-03-01T13:49:24;28.90;;;18.10;;
47429;SDS011;33181;49.246;7.372;2023-03-01T13:51:58;29.60;;;17.77;;
47429;SDS011;33181;49.246;7.372;2023-03-01T13:54:32;29.80;;;18.13;;
47429;SDS011;33181;49.246;7.372;2023-03-01T13:56:58;30.20;;;17.47;;
47429;SDS011;33181;49.246;7.372;2023-03-01T13:59:25;30.10;;;19.00;;
47429;SDS011;33181;49.246;7.372;2023-03-01T14:01:52;32.37;;;18.77;;
47429;SDS011;33181;49.246;7.372;2023-03-01T14:04:32;30.40;;;19.03;;
47429;SDS011;33181;49.246;7.372;2023-03-01T14:07:19;30.77;;;18.80;;
47429;SDS011;33181;49.246;7.372;2023-03-01T14:09:51;27.03;;;16.53;;
47429;SDS011;33181;49.246;7.372;2023-03-01T14:15:46;28.40;;;17.87;;
47429;SDS011;33181;49.246;7.372;2023-03-01T14:18:47;30.23;;;18.30;;
47429;SDS011;33181;49.246;7.372;2023-03-01T14:21:30;29.07;;;18.10;;
47429;SDS011;33181;49.246;7.372;2023-03-01T14:23:56;35.43;;;19.33;;
47429;SDS011;33181;49.246;7.372;2023-03-01T14:26:23;31.00;;;18.63;;
47429;SDS011;33181;49.246;7.372;2023-03-01T14:28:49;29.50;;;17.90;;
47429;SDS011;33181;49.246;7.372;2023-03-01T14:31:37;30.17;;;18.40;;
47429;SDS011;33181;49.246;7.372;2023-03-01T14:34:16;31.30;;;17.93;;
47429;SDS011;33181;49.246;7.372;2023-03-01T14:36:47;32.10;;;18.43;;
47429;SDS011;33181;49.246;7.372;2023-03-01T14:39:20;37.47;;;18.87;;
47429;SDS011;33181;49.246;7.372;2023-03-01T14:41:51;37.00;;;18.33;;
47429;SDS011;33181;49.246;7.372;2023-03-01T14:44:21;26.97;;;16.83;;
47429;SDS011;33181;49.246;7.372;2023-03-01T14:46:51;32.43;;;18.07;;
47429;SDS011;33181;49.246;7.372;2023-03-01T14:49:31;29.87;;;18.17;;
47429;SDS011;33181;49.246;7.372;2023-03-01T14:52:04;28.43;;;17.80;;
47429;SDS011;33181;49.246;7.372;2023-03-01T14:54:43;29.93;;;17.80;;
47429;SDS011;33181;49.246;7.372;2023-03-01T14:57:14;29.87;;;18.57;;
47429;SDS011;33181;49.246;7.372;2023-03-01T14:59:46;31.93;;;18.80;;
47429;SDS011;33181;49.246;7.372;2023-03-01T15:02:18;31.10;;;18.13;;
47429;SDS011;33181;49.246;7.372;2023-03-01T15:04:49;31.50;;;18.77;;
47429;SDS011;33181;49.246;7.372;2023-03-01T15:07:21;29.80;;;18.47;;
47429;SDS011;33181;49.246;7.372;2023-03-01T15:09:51;29.10;;;17.60;;
47429;SDS011;33181;49.246;7.372;2023-03-01T15:14:52;32.80;;;18.43;;
47429;SDS011;33181;49.246;7.372;2023-03-01T15:17:40;28.77;;;17.80;;
47429;SDS011;33181;49.246;7.372;2023-03-01T15:20:06;26.80;;;16.53;;
47429;SDS011;33181;49.246;7.372;2023-03-01T15:22:46;27.80;;;16.20;;
47429;SDS011;33181;49.246;7.372;2023-03-01T15:25:20;27.33;;;16.83;;
47429;SDS011;33181;49.246;7.372;2023-03-01T15:27:51;29.40;;;16.90;;
47429;SDS011;33181;49.246;7.372;2023-03-01T15:30:33;28.47;;;16.57;;
47429;SDS011;33181;49.246;7.372;2023-03-01T15:33:47;28.93;;;15.77;;
47429;SDS011;33181;49.246;7.372;2023-03-01T15:35:52;31.90;;;16.90;;
47429;SDS011;33181;49.246;7.372;2023-03-01T15:38:28;27.33;;;16.80;;
47429;SDS011;33181;49.246;7.372;2023-03-01T15:41:22;29.83;;;16.70;;
47429;SDS011;33181;49.246;7.372;2023-03-01T15:43:55;27.90;;;16.17;;
47429;SDS011;33181;49.246;7.372;2023-03-01T15:46:27;27.37;;;16.00;;
47429;SDS011;33181;49.246;7.372;2023-03-01T15:49:00;25.07;;;14.90;;
47429;SDS011;33181;49.246;7.372;2023-03-01T15:51:31;25.70;;;16.47;;
47429;SDS011;33181;49.246;7.372;2023-03-01T15:54:01;27.43;;;15.67;;
47429;SDS011;33181;49.246;7.372;2023-03-01T15:56:42;25.50;;;14.33;;
47429;SDS011;33181;49.246;7.372;2023-03-01T15:59:09;27.10;;;15.73;;
47429;SDS011;33181;49.246;7.372;2023-03-01T16:01:38;33.07;;;15.70;;
47429;SDS011;33181;49.246;7.372;2023-03-01T16:04:05;27.67;;;15.10;;
47429;SDS011;33181;49.246;7.372;2023-03-01T16:06:31;25.23;;;15.20;;
47429;SDS011;33181;49.246;7.372;2023-03-01T16:08:57;24.27;;;14.50;;
47429;SDS011;33181;49.246;7.372;2023-03-01T16:11:22;23.33;;;14.00;;
47429;SDS011;33181;49.246;7.372;2023-03-01T16:13:48;28.10;;;14.37;;
47429;SDS011;33181;49.246;7.372;2023-03-01T16:16:15;21.90;;;14.90;;
47429;SDS011;33181;49.246;7.372;2023-03-01T16:18:42;22.93;;;14.07;;
47429;SDS011;33181;49.246;7.372;2023-03-01T16:21:14;24.33;;;14.50;;
47429;SDS011;33181;49.246;7.372;2023-03-01T16:23:47;19.40;;;13.43;;
47429;SDS011;33181;49.246;7.372;2023-03-01T16:26:13;21.07;;;13.30;;
47429;SDS011;33181;49.246;7.372;2023-03-01T16:28:40;20.63;;;13.30;;
47429;SDS011;33181;49.246;7.372;2023-03-01T16:31:07;23.17;;;13.07;;
47429;SDS011;33181;49.246;7.372;2023-03-01T16:33:33;22.17;;;13.73;;
47429;SDS011;33181;49.246;7.372;2023-03-01T16:36:01;23.13;;;13.77;;
47429;SDS011;33181;49.246;7.372;2023-03-01T16:38:32;22.40;;;13.23;;
47429;SDS011;33181;49.246;7.372;2023-03-01T16:40:59;21.30;;;13.03;;
47429;SDS011;33181;49.246;7.372;2023-03-01T16:43:25;23.27;;;13.60;;
47429;SDS011;33181;49.246;7.372;2023-03-01T16:45:51;23.40;;;12.30;;
47429;SDS011;33181;49.246;7.372;2023-03-01T16:48:17;27.03;;;14.43;;
47429;SDS011;33181;49.246;7.372;2023-03-01T16:50:43;24.50;;;14.50;;
47429;SDS011;33181;49.246;7.372;2023-03-01T16:53:09;22.80;;;13.70;;
47429;SDS011;33181;49.246;7.372;2023-03-01T16:55:35;27.93;;;15.03;;
47429;SDS011;33181;49.246;7.372;2023-03-01T16:58:01;23.03;;;13.80;;